sensor_id;sensor_type;location;lat;lon;timestamp;P1;P2;P0
78063;PMS5003;67429;51.596;-3.264;2023-09-08T00:00:30;22;22;
78063;PMS5003;67429;51.596;-3.264;2023-09-08T00:02:55;21;21;
78063;PMS5003;67429;51.596;-3.264;2023-09-08T00:05:20;22;22;
78063;PMS5003;67429;51.596;-3.264;2023-09-08T00:07:45;24;22;
78063;PMS5003;67429;51.596;-3.264;2023-09-08T00:10:10;21;21;
78063;PMS5003;67429;51.596;-3.264;2023-09-08T00:12:36;19;19;
78063;PMS5003;67429;51.596;-3.264;2023-09-08T00:15:01;21;21;
78063;PMS5003;67429;51.596;-3.264;2023-09-08T00:17:27;36;36;
78063;PMS5003;67429;51.596;-3.264;2023-09-08T00:19:53;28;26;
78063;PMS5003;67429;51.596;-3.264;2023-09-08T00:22:18;25;25;
78063;PMS5003;67429;51.596;-3.264;2023-09-08T00:24:43;25;24;
78063;PMS5003;67429;51.596;-3.264;2023-09-08T00:27:08;25;24;
78063;PMS5003;67429;51.596;-3.264;2023-09-08T00:29:33;27;27;
78063;PMS5003;67429;51.596;-3.264;2023-09-08T00:31:59;28;27;
78063;PMS5003;67429;51.596;-3.264;2023-09-08T00:34:25;25;24;
78063;PMS5003;67429;51.596;-3.264;2023-09-08T00:36:50;23;23;
78063;PMS5003;67429;51.596;-3.264;2023-09-08T00:39:15;21;21;
78063;PMS5003;67429;51.596;-3.264;2023-09-08T00:41:41;19;18;
78063;PMS5003;67429;51.596;-3.264;2023-09-08T00:44:06;18;18;
78063;PMS5003;67429;51.596;-3.264;2023-09-08T00:46:31;20;19;
78063;PMS5003;67429;51.596;-3.264;2023-09-08T00:48:57;18;18;
78063;PMS5003;67429;51.596;-3.264;2023-09-08T00:51:22;18;18;
78063;PMS5003;67429;51.596;-3.264;2023-09-08T00:53:47;18;18;
78063;PMS5003;67429;51.596;-3.264;2023-09-08T00:56:13;21;21;
78063;PMS5003;67429;51.596;-3.264;2023-09-08T00:58:38;18;18;
78063;PMS5003;67429;51.596;-3.264;2023-09-08T01:01:03;18;18;
78063;PMS5003;67429;51.596;-3.264;2023-09-08T01:03:29;19;19;
78063;PMS5003;67429;51.596;-3.264;2023-09-08T01:05:54;18;18;
78063;PMS5003;67429;51.596;-3.264;2023-09-08T01:08:19;17;17;
78063;PMS5003;67429;51.596;-3.264;2023-09-08T01:10:45;19;19;
78063;PMS5003;67429;51.596;-3.264;2023-09-08T01:13:10;19;19;
78063;PMS5003;67429;51.596;-3.264;2023-09-08T01:15:36;16;16;
78063;PMS5003;67429;51.596;-3.264;2023-09-08T01:18:01;21;20;
78063;PMS5003;67429;51.596;-3.264;2023-09-08T01:20:27;24;23;
78063;PMS5003;67429;51.596;-3.264;2023-09-08T01:22:55;21;20;
78063;PMS5003;67429;51.596;-3.264;2023-09-08T01:25:18;20;20;
78063;PMS5003;67429;51.596;-3.264;2023-09-08T01:27:45;22;22;
78063;PMS5003;67429;51.596;-3.264;2023-09-08T01:30:08;15;15;
78063;PMS5003;67429;51.596;-3.264;2023-09-08T01:32:33;18;18;
78063;PMS5003;67429;51.596;-3.264;2023-09-08T01:34:59;19;19;
78063;PMS5003;67429;51.596;-3.264;2023-09-08T01:37:24;18;18;
78063;PMS5003;67429;51.596;-3.264;2023-09-08T01:39:49;18;18;
78063;PMS5003;67429;51.596;-3.264;2023-09-08T01:42:15;21;21;
78063;PMS5003;67429;51.596;-3.264;2023-09-08T01:44:40;19;19;
78063;PMS5003;67429;51.596;-3.264;2023-09-08T01:47:05;18;18;
78063;PMS5003;67429;51.596;-3.264;2023-09-08T01:49:31;22;21;
78063;PMS5003;67429;51.596;-3.264;2023-09-08T01:51:56;19;19;
78063;PMS5003;67429;51.596;-3.264;2023-09-08T01:54:21;18;18;
78063;PMS5003;67429;51.596;-3.264;2023-09-08T01:56:47;18;17;
78063;PMS5003;67429;51.596;-3.264;2023-09-08T01:59:12;18;18;
78063;PMS5003;67429;51.596;-3.264;2023-09-08T02:01:38;17;17;
78063;PMS5003;67429;51.596;-3.264;2023-09-08T02:04:04;17;17;
78063;PMS5003;67429;51.596;-3.264;2023-09-08T02:06:29;18;18;
78063;PMS5003;67429;51.596;-3.264;2023-09-08T02:08:54;20;19;
78063;PMS5003;67429;51.596;-3.264;2023-09-08T02:11:20;20;20;
78063;PMS5003;67429;51.596;-3.264;2023-09-08T02:13:45;20;20;
78063;PMS5003;67429;51.596;-3.264;2023-09-08T02:16:12;17;17;
78063;PMS5003;67429;51.596;-3.264;2023-09-08T02:18:36;20;19;
78063;PMS5003;67429;51.596;-3.264;2023-09-08T02:21:01;17;15;
78063;PMS5003;67429;51.596;-3.264;2023-09-08T02:23:27;17;17;
78063;PMS5003;67429;51.596;-3.264;2023-09-08T02:25:53;22;20;
78063;PMS5003;67429;51.596;-3.264;2023-09-08T02:28:18;17;17;
78063;PMS5003;67429;51.596;-3.264;2023-09-08T02:30:43;19;19;
78063;PMS5003;67429;51.596;-3.264;2023-09-08T02:33:09;21;20;
78063;PMS5003;67429;51.596;-3.264;2023-09-08T02:35:36;22;21;
78063;PMS5003;67429;51.596;-3.264;2023-09-08T02:38:00;21;21;
78063;PMS5003;67429;51.596;-3.264;2023-09-08T02:40:25;22;21;
78063;PMS5003;67429;51.596;-3.264;2023-09-08T02:42:50;22;21;
78063;PMS5003;67429;51.596;-3.264;2023-09-08T02:45:16;25;25;
78063;PMS5003;67429;51.596;-3.264;2023-09-08T02:47:41;26;25;
78063;PMS5003;67429;51.596;-3.264;2023-09-08T02:50:07;24;23;
78063;PMS5003;67429;51.596;-3.264;2023-09-08T02:52:32;25;25;
78063;PMS5003;67429;51.596;-3.264;2023-09-08T02:54:58;22;22;
78063;PMS5003;67429;51.596;-3.264;2023-09-08T02:57:23;27;27;
78063;PMS5003;67429;51.596;-3.264;2023-09-08T02:59:49;28;28;
78063;PMS5003;67429;51.596;-3.264;2023-09-08T03:02:14;23;23;
78063;PMS5003;67429;51.596;-3.264;2023-09-08T03:04:39;25;24;
78063;PMS5003;67429;51.596;-3.264;2023-09-08T03:07:04;23;22;
78063;PMS5003;67429;51.596;-3.264;2023-09-08T03:09:30;23;23;
78063;PMS5003;67429;51.596;-3.264;2023-09-08T03:11:55;22;22;
78063;PMS5003;67429;51.596;-3.264;2023-09-08T03:14:21;24;23;
78063;PMS5003;67429;51.596;-3.264;2023-09-08T03:16:46;26;26;
78063;PMS5003;67429;51.596;-3.264;2023-09-08T03:19:12;23;23;
78063;PMS5003;67429;51.596;-3.264;2023-09-08T03:21:37;24;24;
78063;PMS5003;67429;51.596;-3.264;2023-09-08T03:24:03;25;25;
78063;PMS5003;67429;51.596;-3.264;2023-09-08T03:26:28;23;23;
78063;PMS5003;67429;51.596;-3.264;2023-09-08T03:28:54;25;25;
78063;PMS5003;67429;51.596;-3.264;2023-09-08T03:31:19;23;23;
78063;PMS5003;67429;51.596;-3.264;2023-09-08T03:33:44;26;25;
78063;PMS5003;67429;51.596;-3.264;2023-09-08T03:36:10;29;28;
78063;PMS5003;67429;51.596;-3.264;2023-09-08T03:38:36;31;30;
78063;PMS5003;67429;51.596;-3.264;2023-09-08T03:41:01;26;26;
78063;PMS5003;67429;51.596;-3.264;2023-09-08T03:43:26;25;25;
78063;PMS5003;67429;51.596;-3.264;2023-09-08T03:45:51;26;26;
78063;PMS5003;67429;51.596;-3.264;2023-09-08T03:48:17;27;27;
78063;PMS5003;67429;51.596;-3.264;2023-09-08T03:50:42;24;24;
78063;PMS5003;67429;51.596;-3.264;2023-09-08T03:53:08;29;28;
78063;PMS5003;67429;51.596;-3.264;2023-09-08T03:55:33;33;32;
78063;PMS5003;67429;51.596;-3.264;2023-09-08T03:57:58;25;25;
78063;PMS5003;67429;51.596;-3.264;2023-09-08T04:00:24;29;28;
78063;PMS5003;67429;51.596;-3.264;2023-09-08T04:02:49;28;28;
78063;PMS5003;67429;51.596;-3.264;2023-09-08T04:05:15;29;29;
78063;PMS5003;67429;51.596;-3.264;2023-09-08T04:07:40;30;29;
78063;PMS5003;67429;51.596;-3.264;2023-09-08T04:10:06;28;28;
78063;PMS5003;67429;51.596;-3.264;2023-09-08T04:12:30;30;29;
78063;PMS5003;67429;51.596;-3.264;2023-09-08T04:14:56;24;24;
78063;PMS5003;67429;51.596;-3.264;2023-09-08T04:17:21;26;26;
78063;PMS5003;67429;51.596;-3.264;2023-09-08T04:19:46;27;26;
78063;PMS5003;67429;51.596;-3.264;2023-09-08T04:22:12;25;25;
78063;PMS5003;67429;51.596;-3.264;2023-09-08T04:24:37;32;31;
78063;PMS5003;67429;51.596;-3.264;2023-09-08T04:27:02;25;25;
78063;PMS5003;67429;51.596;-3.264;2023-09-08T04:29:28;30;30;
78063;PMS5003;67429;51.596;-3.264;2023-09-08T04:31:53;29;29;
78063;PMS5003;67429;51.596;-3.264;2023-09-08T04:34:18;27;26;
78063;PMS5003;67429;51.596;-3.264;2023-09-08T04:36:44;31;31;
78063;PMS5003;67429;51.596;-3.264;2023-09-08T04:39:10;26;26;
78063;PMS5003;67429;51.596;-3.264;2023-09-08T04:41:35;28;28;
78063;PMS5003;67429;51.596;-3.264;2023-09-08T04:44:00;30;30;
78063;PMS5003;67429;51.596;-3.264;2023-09-08T04:46:25;27;27;
78063;PMS5003;67429;51.596;-3.264;2023-09-08T04:48:50;29;29;
78063;PMS5003;67429;51.596;-3.264;2023-09-08T04:51:15;26;26;
78063;PMS5003;67429;51.596;-3.264;2023-09-08T04:53:41;27;27;
78063;PMS5003;67429;51.596;-3.264;2023-09-08T04:56:06;25;25;
78063;PMS5003;67429;51.596;-3.264;2023-09-08T04:58:32;23;23;
78063;PMS5003;67429;51.596;-3.264;2023-09-08T05:00:57;29;27;
78063;PMS5003;67429;51.596;-3.264;2023-09-08T05:03:23;30;29;
78063;PMS5003;67429;51.596;-3.264;2023-09-08T05:05:49;26;25;
78063;PMS5003;67429;51.596;-3.264;2023-09-08T05:08:15;26;25;
78063;PMS5003;67429;51.596;-3.264;2023-09-08T05:10:39;29;27;
78063;PMS5003;67429;51.596;-3.264;2023-09-08T05:13:05;27;27;
78063;PMS5003;67429;51.596;-3.264;2023-09-08T05:15:31;25;25;
78063;PMS5003;67429;51.596;-3.264;2023-09-08T05:17:56;23;23;
78063;PMS5003;67429;51.596;-3.264;2023-09-08T05:20:21;26;25;
78063;PMS5003;67429;51.596;-3.264;2023-09-08T05:22:46;34;32;
78063;PMS5003;67429;51.596;-3.264;2023-09-08T05:25:12;26;26;
78063;PMS5003;67429;51.596;-3.264;2023-09-08T05:27:37;26;26;
78063;PMS5003;67429;51.596;-3.264;2023-09-08T05:30:03;22;22;
78063;PMS5003;67429;51.596;-3.264;2023-09-08T05:32:28;23;23;
78063;PMS5003;67429;51.596;-3.264;2023-09-08T05:34:53;26;25;
78063;PMS5003;67429;51.596;-3.264;2023-09-08T05:37:18;29;28;
78063;PMS5003;67429;51.596;-3.264;2023-09-08T05:39:44;28;27;
78063;PMS5003;67429;51.596;-3.264;2023-09-08T05:42:09;19;18;
78063;PMS5003;67429;51.596;-3.264;2023-09-08T05:44:35;23;22;
78063;PMS5003;67429;51.596;-3.264;2023-09-08T05:47:00;20;20;
78063;PMS5003;67429;51.596;-3.264;2023-09-08T05:49:26;17;17;
78063;PMS5003;67429;51.596;-3.264;2023-09-08T05:51:51;19;19;
78063;PMS5003;67429;51.596;-3.264;2023-09-08T05:54:17;21;21;
78063;PMS5003;67429;51.596;-3.264;2023-09-08T05:56:43;17;17;
78063;PMS5003;67429;51.596;-3.264;2023-09-08T05:59:07;20;20;
78063;PMS5003;67429;51.596;-3.264;2023-09-08T06:01:33;23;22;
78063;PMS5003;67429;51.596;-3.264;2023-09-08T06:03:59;19;19;
78063;PMS5003;67429;51.596;-3.264;2023-09-08T06:06:24;26;25;
78063;PMS5003;67429;51.596;-3.264;2023-09-08T06:08:49;23;23;
78063;PMS5003;67429;51.596;-3.264;2023-09-08T06:11:14;23;23;
78063;PMS5003;67429;51.596;-3.264;2023-09-08T06:13:39;23;23;
78063;PMS5003;67429;51.596;-3.264;2023-09-08T06:16:04;23;22;
78063;PMS5003;67429;51.596;-3.264;2023-09-08T06:18:30;25;25;
78063;PMS5003;67429;51.596;-3.264;2023-09-08T06:20:55;22;22;
78063;PMS5003;67429;51.596;-3.264;2023-09-08T06:23:21;22;21;
78063;PMS5003;67429;51.596;-3.264;2023-09-08T06:25:46;20;20;
78063;PMS5003;67429;51.596;-3.264;2023-09-08T06:28:12;26;26;
78063;PMS5003;67429;51.596;-3.264;2023-09-08T06:30:37;26;25;
78063;PMS5003;67429;51.596;-3.264;2023-09-08T06:33:02;23;23;
78063;PMS5003;67429;51.596;-3.264;2023-09-08T06:35:28;23;23;
78063;PMS5003;67429;51.596;-3.264;2023-09-08T06:37:53;27;27;
78063;PMS5003;67429;51.596;-3.264;2023-09-08T06:40:18;27;26;
78063;PMS5003;67429;51.596;-3.264;2023-09-08T06:42:44;36;36;
78063;PMS5003;67429;51.596;-3.264;2023-09-08T06:45:10;39;38;
78063;PMS5003;67429;51.596;-3.264;2023-09-08T06:47:35;41;41;
78063;PMS5003;67429;51.596;-3.264;2023-09-08T06:50:00;46;45;
78063;PMS5003;67429;51.596;-3.264;2023-09-08T06:52:26;44;44;
78063;PMS5003;67429;51.596;-3.264;2023-09-08T06:54:52;44;43;
78063;PMS5003;67429;51.596;-3.264;2023-09-08T06:57:18;45;42;
78063;PMS5003;67429;51.596;-3.264;2023-09-08T06:59:42;42;41;
78063;PMS5003;67429;51.596;-3.264;2023-09-08T07:02:08;47;45;
78063;PMS5003;67429;51.596;-3.264;2023-09-08T07:04:33;41;41;
78063;PMS5003;67429;51.596;-3.264;2023-09-08T07:06:58;43;42;
78063;PMS5003;67429;51.596;-3.264;2023-09-08T07:09:23;44;43;
78063;PMS5003;67429;51.596;-3.264;2023-09-08T07:11:49;39;38;
78063;PMS5003;67429;51.596;-3.264;2023-09-08T07:14:14;32;31;
78063;PMS5003;67429;51.596;-3.264;2023-09-08T07:16:39;36;35;
78063;PMS5003;67429;51.596;-3.264;2023-09-08T07:19:05;36;36;
78063;PMS5003;67429;51.596;-3.264;2023-09-08T07:21:30;35;35;
78063;PMS5003;67429;51.596;-3.264;2023-09-08T07:23:56;45;44;
78063;PMS5003;67429;51.596;-3.264;2023-09-08T07:26:21;36;36;
78063;PMS5003;67429;51.596;-3.264;2023-09-08T07:28:46;33;33;
78063;PMS5003;67429;51.596;-3.264;2023-09-08T07:31:12;33;32;
78063;PMS5003;67429;51.596;-3.264;2023-09-08T07:33:38;33;33;
78063;PMS5003;67429;51.596;-3.264;2023-09-08T07:36:04;40;40;
78063;PMS5003;67429;51.596;-3.264;2023-09-08T07:38:29;37;37;
78063;PMS5003;67429;51.596;-3.264;2023-09-08T07:40:54;41;40;
78063;PMS5003;67429;51.596;-3.264;2023-09-08T07:43:20;37;37;
78063;PMS5003;67429;51.596;-3.264;2023-09-08T07:45:45;34;33;
78063;PMS5003;67429;51.596;-3.264;2023-09-08T07:48:11;34;32;
78063;PMS5003;67429;51.596;-3.264;2023-09-08T07:50:36;29;28;
78063;PMS5003;67429;51.596;-3.264;2023-09-08T07:53:02;28;28;
78063;PMS5003;67429;51.596;-3.264;2023-09-08T07:55:27;27;26;
78063;PMS5003;67429;51.596;-3.264;2023-09-08T07:57:53;23;23;
78063;PMS5003;67429;51.596;-3.264;2023-09-08T08:00:19;25;25;
78063;PMS5003;67429;51.596;-3.264;2023-09-08T08:02:45;23;23;
78063;PMS5003;67429;51.596;-3.264;2023-09-08T08:05:09;22;22;
78063;PMS5003;67429;51.596;-3.264;2023-09-08T08:07:35;26;25;
78063;PMS5003;67429;51.596;-3.264;2023-09-08T08:10:00;22;22;
78063;PMS5003;67429;51.596;-3.264;2023-09-08T08:12:26;24;24;
78063;PMS5003;67429;51.596;-3.264;2023-09-08T08:14:51;27;25;
78063;PMS5003;67429;51.596;-3.264;2023-09-08T08:17:17;26;26;
78063;PMS5003;67429;51.596;-3.264;2023-09-08T08:19:42;25;24;
78063;PMS5003;67429;51.596;-3.264;2023-09-08T08:22:08;29;29;
78063;PMS5003;67429;51.596;-3.264;2023-09-08T08:24:38;28;28;
78063;PMS5003;67429;51.596;-3.264;2023-09-08T08:26:58;31;31;
78063;PMS5003;67429;51.596;-3.264;2023-09-08T08:29:23;36;36;
78063;PMS5003;67429;51.596;-3.264;2023-09-08T08:31:48;31;31;
78063;PMS5003;67429;51.596;-3.264;2023-09-08T08:34:14;36;35;
78063;PMS5003;67429;51.596;-3.264;2023-09-08T08:36:39;34;34;
78063;PMS5003;67429;51.596;-3.264;2023-09-08T08:39:05;34;34;
78063;PMS5003;67429;51.596;-3.264;2023-09-08T08:41:30;33;32;
78063;PMS5003;67429;51.596;-3.264;2023-09-08T08:43:55;30;29;
78063;PMS5003;67429;51.596;-3.264;2023-09-08T08:46:21;31;31;
78063;PMS5003;67429;51.596;-3.264;2023-09-08T08:48:46;29;29;
78063;PMS5003;67429;51.596;-3.264;2023-09-08T08:51:11;31;31;
78063;PMS5003;67429;51.596;-3.264;2023-09-08T08:53:37;30;29;
78063;PMS5003;67429;51.596;-3.264;2023-09-08T08:56:03;25;25;
78063;PMS5003;67429;51.596;-3.264;2023-09-08T08:58:28;27;27;
78063;PMS5003;67429;51.596;-3.264;2023-09-08T09:00:54;25;25;
78063;PMS5003;67429;51.596;-3.264;2023-09-08T09:03:20;24;24;
78063;PMS5003;67429;51.596;-3.264;2023-09-08T09:05:45;25;25;
78063;PMS5003;67429;51.596;-3.264;2023-09-08T09:08:10;27;27;
78063;PMS5003;67429;51.596;-3.264;2023-09-08T09:10:36;26;25;
78063;PMS5003;67429;51.596;-3.264;2023-09-08T09:13:01;22;21;
78063;PMS5003;67429;51.596;-3.264;2023-09-08T09:15:28;27;27;
78063;PMS5003;67429;51.596;-3.264;2023-09-08T09:20:18;24;23;
78063;PMS5003;67429;51.596;-3.264;2023-09-08T09:22:43;23;23;
78063;PMS5003;67429;51.596;-3.264;2023-09-08T09:25:08;27;26;
78063;PMS5003;67429;51.596;-3.264;2023-09-08T09:27:33;24;24;
78063;PMS5003;67429;51.596;-3.264;2023-09-08T09:29:58;19;19;
78063;PMS5003;67429;51.596;-3.264;2023-09-08T09:32:24;27;26;
78063;PMS5003;67429;51.596;-3.264;2023-09-08T09:34:49;21;21;
78063;PMS5003;67429;51.596;-3.264;2023-09-08T09:37:14;23;23;
78063;PMS5003;67429;51.596;-3.264;2023-09-08T09:39:39;22;22;
78063;PMS5003;67429;51.596;-3.264;2023-09-08T09:42:05;20;20;
78063;PMS5003;67429;51.596;-3.264;2023-09-08T09:44:31;23;22;
78063;PMS5003;67429;51.596;-3.264;2023-09-08T09:46:56;25;25;
78063;PMS5003;67429;51.596;-3.264;2023-09-08T09:49:22;22;22;
78063;PMS5003;67429;51.596;-3.264;2023-09-08T09:51:48;26;24;
78063;PMS5003;67429;51.596;-3.264;2023-09-08T09:54:12;25;25;
78063;PMS5003;67429;51.596;-3.264;2023-09-08T09:56:38;24;24;
78063;PMS5003;67429;51.596;-3.264;2023-09-08T09:59:04;25;25;
78063;PMS5003;67429;51.596;-3.264;2023-09-08T10:01:29;24;24;
78063;PMS5003;67429;51.596;-3.264;2023-09-08T10:03:54;25;25;
78063;PMS5003;67429;51.596;-3.264;2023-09-08T10:06:19;25;25;
78063;PMS5003;67429;51.596;-3.264;2023-09-08T10:08:44;24;23;
78063;PMS5003;67429;51.596;-3.264;2023-09-08T10:11:10;24;24;
78063;PMS5003;67429;51.596;-3.264;2023-09-08T10:13:36;24;24;
78063;PMS5003;67429;51.596;-3.264;2023-09-08T10:15:59;22;22;
78063;PMS5003;67429;51.596;-3.264;2023-09-08T10:18:25;22;22;
78063;PMS5003;67429;51.596;-3.264;2023-09-08T10:20:50;19;19;
78063;PMS5003;67429;51.596;-3.264;2023-09-08T10:23:16;17;17;
78063;PMS5003;67429;51.596;-3.264;2023-09-08T10:25:42;23;21;
78063;PMS5003;67429;51.596;-3.264;2023-09-08T10:28:05;21;21;
78063;PMS5003;67429;51.596;-3.264;2023-09-08T10:30:31;23;22;
78063;PMS5003;67429;51.596;-3.264;2023-09-08T10:32:56;20;20;
78063;PMS5003;67429;51.596;-3.264;2023-09-08T10:35:21;23;22;
78063;PMS5003;67429;51.596;-3.264;2023-09-08T10:37:47;23;21;
78063;PMS5003;67429;51.596;-3.264;2023-09-08T10:40:21;21;21;
78063;PMS5003;67429;51.596;-3.264;2023-09-08T10:42:39;21;21;
78063;PMS5003;67429;51.596;-3.264;2023-09-08T10:47:30;22;22;
78063;PMS5003;67429;51.596;-3.264;2023-09-08T10:49:53;20;19;
78063;PMS5003;67429;51.596;-3.264;2023-09-08T10:52:21;19;19;
78063;PMS5003;67429;51.596;-3.264;2023-09-08T10:54:47;20;20;
78063;PMS5003;67429;51.596;-3.264;2023-09-08T10:57:12;17;17;
78063;PMS5003;67429;51.596;-3.264;2023-09-08T10:59:35;17;17;
78063;PMS5003;67429;51.596;-3.264;2023-09-08T11:02:03;18;18;
78063;PMS5003;67429;51.596;-3.264;2023-09-08T11:04:26;20;19;
78063;PMS5003;67429;51.596;-3.264;2023-09-08T11:06:52;16;16;
78063;PMS5003;67429;51.596;-3.264;2023-09-08T11:09:17;17;17;
78063;PMS5003;67429;51.596;-3.264;2023-09-08T11:11:42;18;18;
78063;PMS5003;67429;51.596;-3.264;2023-09-08T11:14:08;18;18;
78063;PMS5003;67429;51.596;-3.264;2023-09-08T11:16:33;17;17;
78063;PMS5003;67429;51.596;-3.264;2023-09-08T11:18:59;20;19;
78063;PMS5003;67429;51.596;-3.264;2023-09-08T11:21:24;17;17;
78063;PMS5003;67429;51.596;-3.264;2023-09-08T11:23:50;19;19;
78063;PMS5003;67429;51.596;-3.264;2023-09-08T11:26:15;21;20;
78063;PMS5003;67429;51.596;-3.264;2023-09-08T11:28:41;24;23;
78063;PMS5003;67429;51.596;-3.264;2023-09-08T11:31:06;23;22;
78063;PMS5003;67429;51.596;-3.264;2023-09-08T11:33:33;22;22;
78063;PMS5003;67429;51.596;-3.264;2023-09-08T11:35:57;21;21;
78063;PMS5003;67429;51.596;-3.264;2023-09-08T11:38:26;21;21;
78063;PMS5003;67429;51.596;-3.264;2023-09-08T11:40:48;25;25;
78063;PMS5003;67429;51.596;-3.264;2023-09-08T11:43:13;19;19;
78063;PMS5003;67429;51.596;-3.264;2023-09-08T11:45:38;20;20;
78063;PMS5003;67429;51.596;-3.264;2023-09-08T11:48:04;21;20;
78063;PMS5003;67429;51.596;-3.264;2023-09-08T11:50:29;18;17;
78063;PMS5003;67429;51.596;-3.264;2023-09-08T11:52:54;19;19;
78063;PMS5003;67429;51.596;-3.264;2023-09-08T11:55:21;18;18;
78063;PMS5003;67429;51.596;-3.264;2023-09-08T11:57:47;18;18;
78063;PMS5003;67429;51.596;-3.264;2023-09-08T12:00:11;17;17;
78063;PMS5003;67429;51.596;-3.264;2023-09-08T12:02:37;21;21;
78063;PMS5003;67429;51.596;-3.264;2023-09-08T12:05:02;18;18;
78063;PMS5003;67429;51.596;-3.264;2023-09-08T12:07:27;18;18;
78063;PMS5003;67429;51.596;-3.264;2023-09-08T12:09:52;20;18;
78063;PMS5003;67429;51.596;-3.264;2023-09-08T12:12:17;16;16;
78063;PMS5003;67429;51.596;-3.264;2023-09-08T12:14:43;16;16;
78063;PMS5003;67429;51.596;-3.264;2023-09-08T12:17:09;14;14;
78063;PMS5003;67429;51.596;-3.264;2023-09-08T12:19:33;14;14;
78063;PMS5003;67429;51.596;-3.264;2023-09-08T12:21:59;15;15;
78063;PMS5003;67429;51.596;-3.264;2023-09-08T12:26:49;16;16;
78063;PMS5003;67429;51.596;-3.264;2023-09-08T12:29:14;15;14;
78063;PMS5003;67429;51.596;-3.264;2023-09-08T12:31:40;12;12;
78063;PMS5003;67429;51.596;-3.264;2023-09-08T12:34:05;14;14;
78063;PMS5003;67429;51.596;-3.264;2023-09-08T12:36:30;14;14;
78063;PMS5003;67429;51.596;-3.264;2023-09-08T12:38:56;13;13;
78063;PMS5003;67429;51.596;-3.264;2023-09-08T12:41:21;14;14;
78063;PMS5003;67429;51.596;-3.264;2023-09-08T12:43:46;15;14;
78063;PMS5003;67429;51.596;-3.264;2023-09-08T12:46:11;12;12;
78063;PMS5003;67429;51.596;-3.264;2023-09-08T12:48:36;13;13;
78063;PMS5003;67429;51.596;-3.264;2023-09-08T12:51:02;13;13;
78063;PMS5003;67429;51.596;-3.264;2023-09-08T12:53:27;18;17;
78063;PMS5003;67429;51.596;-3.264;2023-09-08T12:55:53;18;17;
78063;PMS5003;67429;51.596;-3.264;2023-09-08T12:58:18;15;15;
78063;PMS5003;67429;51.596;-3.264;2023-09-08T13:00:44;15;14;
78063;PMS5003;67429;51.596;-3.264;2023-09-08T13:03:09;16;15;
78063;PMS5003;67429;51.596;-3.264;2023-09-08T13:05:35;18;18;
78063;PMS5003;67429;51.596;-3.264;2023-09-08T13:08:00;17;17;
78063;PMS5003;67429;51.596;-3.264;2023-09-08T13:10:25;17;17;
78063;PMS5003;67429;51.596;-3.264;2023-09-08T13:12:50;18;17;
78063;PMS5003;67429;51.596;-3.264;2023-09-08T13:15:15;19;17;
78063;PMS5003;67429;51.596;-3.264;2023-09-08T13:17:41;16;15;
78063;PMS5003;67429;51.596;-3.264;2023-09-08T13:20:07;15;15;
78063;PMS5003;67429;51.596;-3.264;2023-09-08T13:22:31;20;18;
78063;PMS5003;67429;51.596;-3.264;2023-09-08T13:24:57;14;14;
78063;PMS5003;67429;51.596;-3.264;2023-09-08T13:27:22;18;18;
78063;PMS5003;67429;51.596;-3.264;2023-09-08T13:29:47;20;18;
78063;PMS5003;67429;51.596;-3.264;2023-09-08T13:32:13;16;16;
78063;PMS5003;67429;51.596;-3.264;2023-09-08T13:34:38;12;12;
78063;PMS5003;67429;51.596;-3.264;2023-09-08T13:37:04;15;15;
78063;PMS5003;67429;51.596;-3.264;2023-09-08T13:39:29;17;16;
78063;PMS5003;67429;51.596;-3.264;2023-09-08T13:41:55;16;15;
78063;PMS5003;67429;51.596;-3.264;2023-09-08T13:44:20;15;15;
78063;PMS5003;67429;51.596;-3.264;2023-09-08T13:46:46;18;17;
78063;PMS5003;67429;51.596;-3.264;2023-09-08T13:49:11;17;17;
78063;PMS5003;67429;51.596;-3.264;2023-09-08T13:51:36;17;16;
78063;PMS5003;67429;51.596;-3.264;2023-09-08T13:54:01;15;15;
78063;PMS5003;67429;51.596;-3.264;2023-09-08T13:56:27;15;14;
78063;PMS5003;67429;51.596;-3.264;2023-09-08T13:58:52;18;17;
78063;PMS5003;67429;51.596;-3.264;2023-09-08T14:01:18;21;17;
78063;PMS5003;67429;51.596;-3.264;2023-09-08T14:03:43;18;18;
78063;PMS5003;67429;51.596;-3.264;2023-09-08T14:06:08;18;18;
78063;PMS5003;67429;51.596;-3.264;2023-09-08T14:08:34;20;19;
78063;PMS5003;67429;51.596;-3.264;2023-09-08T14:10:59;22;22;
78063;PMS5003;67429;51.596;-3.264;2023-09-08T14:13:24;19;18;
78063;PMS5003;67429;51.596;-3.264;2023-09-08T14:15:49;20;20;
78063;PMS5003;67429;51.596;-3.264;2023-09-08T14:18:15;18;18;
78063;PMS5003;67429;51.596;-3.264;2023-09-08T14:20:40;22;22;
78063;PMS5003;67429;51.596;-3.264;2023-09-08T14:23:06;19;18;
78063;PMS5003;67429;51.596;-3.264;2023-09-08T14:25:31;20;19;
78063;PMS5003;67429;51.596;-3.264;2023-09-08T14:27:57;20;18;
78063;PMS5003;67429;51.596;-3.264;2023-09-08T14:30:22;19;19;
78063;PMS5003;67429;51.596;-3.264;2023-09-08T14:32:47;17;17;
78063;PMS5003;67429;51.596;-3.264;2023-09-08T14:35:13;18;18;
78063;PMS5003;67429;51.596;-3.264;2023-09-08T14:37:38;17;17;
78063;PMS5003;67429;51.596;-3.264;2023-09-08T14:40:05;19;19;
78063;PMS5003;67429;51.596;-3.264;2023-09-08T14:42:29;18;17;
78063;PMS5003;67429;51.596;-3.264;2023-09-08T14:44:55;19;18;
78063;PMS5003;67429;51.596;-3.264;2023-09-08T14:47:20;19;19;
78063;PMS5003;67429;51.596;-3.264;2023-09-08T14:49:46;20;19;
78063;PMS5003;67429;51.596;-3.264;2023-09-08T14:52:11;18;17;
78063;PMS5003;67429;51.596;-3.264;2023-09-08T14:54:36;16;16;
78063;PMS5003;67429;51.596;-3.264;2023-09-08T14:57:02;17;17;
78063;PMS5003;67429;51.596;-3.264;2023-09-08T14:59:27;20;18;
78063;PMS5003;67429;51.596;-3.264;2023-09-08T15:01:53;17;17;
78063;PMS5003;67429;51.596;-3.264;2023-09-08T15:04:19;18;17;
78063;PMS5003;67429;51.596;-3.264;2023-09-08T15:06:44;18;17;
78063;PMS5003;67429;51.596;-3.264;2023-09-08T15:09:09;19;19;
78063;PMS5003;67429;51.596;-3.264;2023-09-08T15:11:35;17;16;
78063;PMS5003;67429;51.596;-3.264;2023-09-08T15:14:00;17;17;
78063;PMS5003;67429;51.596;-3.264;2023-09-08T15:16:26;21;20;
78063;PMS5003;67429;51.596;-3.264;2023-09-08T15:18:51;18;18;
78063;PMS5003;67429;51.596;-3.264;2023-09-08T15:21:16;18;18;
78063;PMS5003;67429;51.596;-3.264;2023-09-08T15:23:42;18;18;
78063;PMS5003;67429;51.596;-3.264;2023-09-08T15:26:07;22;21;
78063;PMS5003;67429;51.596;-3.264;2023-09-08T15:28:32;18;18;
78063;PMS5003;67429;51.596;-3.264;2023-09-08T15:30:57;20;20;
78063;PMS5003;67429;51.596;-3.264;2023-09-08T15:33:23;22;21;
78063;PMS5003;67429;51.596;-3.264;2023-09-08T15:35:48;19;19;
78063;PMS5003;67429;51.596;-3.264;2023-09-08T15:38:14;20;19;
78063;PMS5003;67429;51.596;-3.264;2023-09-08T15:40:39;17;17;
78063;PMS5003;67429;51.596;-3.264;2023-09-08T15:43:04;21;20;
78063;PMS5003;67429;51.596;-3.264;2023-09-08T15:45:30;22;22;
78063;PMS5003;67429;51.596;-3.264;2023-09-08T15:47:55;20;19;
78063;PMS5003;67429;51.596;-3.264;2023-09-08T15:50:20;20;19;
78063;PMS5003;67429;51.596;-3.264;2023-09-08T15:52:46;20;19;
78063;PMS5003;67429;51.596;-3.264;2023-09-08T15:55:11;20;20;